ESSAKPIE

Guest
Details From ESSA - Stockholm Arlanda
To KPIE - St Petersburg Clearwater Intl
Flight Number -
Tags Generated
Created
Modified
Stats Distance 4,279 nm / 7,925 km
Max Altitude 0 ft / 0 m
Waypoints 8
Social Downloads 1
Likes 0
Share VATSIM

Download

Looking for another format? Having issues loading an existing format? Contact us
Advertisement - Login to hide

Notes

Generated

Route

ESSA HAA FRENN SEIFF RAPTR ILM02 FADDI KPIE

ID Type Via Altitude Latitude Longitude Leg Dist Tot Dist Heading (true) Name
O ESSA APT - 0 ft / 0 m 59.62640˚ 17.95074˚ - 0 nm - -
HAA NDB - 0 ft / 0 m 60.81746˚ 11.07018˚ 217 nm 217 nm 292° / 286° HAMAR NDB
FRENN FIX - 0 ft / 0 m 45.93361˚ -66.18667˚ 2726 nm 2943 nm 288° / 222° -
SEIFF FIX - 0 ft / 0 m 40.07689˚ -72.81769˚ 456 nm 3400 nm 222° / 217° -
RAPTR FIX - 0 ft / 0 m 37.16806˚ -75.50000˚ 215 nm 3615 nm 217° / 215° -
ILM02 FIX - 0 ft / 0 m 34.38362˚ -77.86259˚ 203 nm 3818 nm 215° / 214° -
FADDI FIX - 0 ft / 0 m 28.14531˚ -82.53617˚ 444 nm 4263 nm 214° / 211° -
O KPIE APT - 0 ft / 0 m 27.92118˚ -82.69189˚ 15 nm 4279 nm 212° / 211° -

Altitude Profile

Advertisement - Login to hide

Weather


0- 5 10 15 20 25 30 35+ Temperature / ° C

Clouds and Precipitation
Forecast for 2018-05-26 18:00 UTC. Updated 5 hours ago

Ground ~20,000 ft ~40,000 ft Winds

ESSA

Details ICAO ESSA (ARN)
Name Stockholm Arlanda
Region Sweden
Timezone Europe/Stockholm (UTC+2.0)
Stats Elevation 137 ft / 42 m (AMSL)
Location 59.650140° 17.943628°
Runways 3
Magnetic Variation 6.173° E

METAR

ESSA 262220Z 35005KT CAVOK 09/06 Q1029 NOSIG

Decode

TAF

TAF AMD ESSA 261832Z 2618/2718 05008KT CAVOK= TAF HKMO 261700Z 2618/2724 22005KT 9999 FEW023 BKN090 BECMG 2700/2706 21005KT FEW019 BKN080 BECMG 2609/2612 18010KT FEW025 SCT090 BECMG 2718/2724 19010KT FEW023 SCT080

Decode

Departure Runways

ID Width Length Bearing (true) Bearing (mag) Surface Threshold Offset Overrun Length
01L 148 ft / 45 m 10,812 ft / 3,296 m 10.35° 4.18° Concrete 0 ft / 0 m 0 ft / 0 m
01R 148 ft / 45 m 8,188 ft / 2,496 m 10.38° 4.21° Asphalt 0 ft / 0 m 0 ft / 0 m
08 148 ft / 45 m 8,178 ft / 2,493 m 75.83° 69.66° Concrete 0 ft / 0 m 0 ft / 0 m
19L 148 ft / 45 m 8,188 ft / 2,496 m 190.39° 184.22° Asphalt 0 ft / 0 m 0 ft / 0 m
19R 148 ft / 45 m 10,812 ft / 3,296 m 190.36° 184.19° Concrete 0 ft / 0 m 0 ft / 0 m
26 148 ft / 45 m 8,178 ft / 2,493 m 255.87° 249.70° Concrete 0 ft / 0 m 0 ft / 0 m

KPIE

Details ICAO KPIE (PIE)
Name ST PETERSBURG CLEARWATER INTL
Region United States
Timezone America/New_York (UTC-4.0)
Stats Elevation 10 ft / 3 m (AMSL)
Location 27.910411° -82.687529°
Runways 4
Magnetic Variation 5.493° W

METAR

KPIE 262153Z 12007KT 10SM BKN110 23/23 A2986 RMK AO2 RAE30 SLP112 P0001 T02330233

Decode

TAF

KPIE 262106Z 2621/2718 13008KT P6SM -SHRA SCT020 BKN080 OVC100 TEMPO 2623/2703 BKN020 OVC080 FM270300 10015G20KT P6SM SHRA VCTS OVC030CB FM271200 12017G23KT 6SM SHRA VCTS OVC015CB FM271600 13021G26KT 6SM SHRA VCTS OVC020CB

Decode

Destination Runways

ID Width Length Bearing (true) Bearing (mag) Surface Threshold Offset Overrun Length
04 150 ft / 46 m 5,909 ft / 1,801 m 39.58° 45.07° Asphalt 0 ft / 0 m 0 ft / 0 m
09 150 ft / 46 m 5,155 ft / 1,571 m 88.13° 93.62° Asphalt 0 ft / 0 m 0 ft / 0 m
18L 150 ft / 46 m 9,764 ft / 2,976 m 171.35° 176.84° Asphalt 0 ft / 0 m 150 ft / 46 m
18R 75 ft / 23 m 4,014 ft / 1,224 m 171.34° 176.83° Asphalt 0 ft / 0 m 0 ft / 0 m
22 150 ft / 46 m 5,909 ft / 1,801 m 219.58° 225.07° Asphalt 0 ft / 0 m 222 ft / 68 m
27 150 ft / 46 m 5,155 ft / 1,571 m 268.14° 273.63° Asphalt 0 ft / 0 m 0 ft / 0 m
36L 75 ft / 23 m 4,014 ft / 1,224 m 351.34° 356.83° Asphalt 558 ft / 170 m 0 ft / 0 m
36R 150 ft / 46 m 9,764 ft / 2,976 m 351.35° 356.84° Asphalt 930 ft / 283 m 0 ft / 0 m

Approach Navaids

Runway Type Ident Frequency Range Bearing (true) Bearing (mag) Slope Elevation
18L Localiser IPIE 109.10 MHz 18 nm / 33 km 171.36° 176.85° - 11 ft / 3 m (AMSL)
18L Glidescope IPIE 109.10 MHz 10 nm / 19 km 171.35° 176.84° 3.00° 7 ft / 2 m (AMSL)
36R Localiser ICWT 108.70 MHz 18 nm / 33 km 351.36° 356.85° - 11 ft / 3 m (AMSL)
36R Glidescope ICWT 108.70 MHz 10 nm / 19 km 351.36° 356.85° 3.00° 11 ft / 3 m (AMSL)
36R DME ICWT 108.70 MHz 18 nm / 33 km - - - 11 ft / 3 m (AMSL)